Gulf Breeze, Florida
Current Conditions -  °F | °C
As of 11:53 AM on Saturday 25 Oct 2014 (Local Time) from KPNS Reporting Station
Clear Clear  
Wind Chill: 74°   Ceiling: Unl
Heat Index: 74°   Visibility: 10mi
Dew Point: 49°   Wind: 15mph
Humidity: 41%   Direction: 350°N
Pressure: 30.09"   Gusts: 21mph
Location:  30.36°N, 87.17°W
Report Text: KPNS 251653Z 35013G18KT 10SM CLR 23/09 A3009 RMK AO2 SLP192 T02330094
Loading
Personal Weather Stations






























Interactive Weather Map
Tropical Storm Tracking
New forecast layout! Learn more

10-Day Weather Forecast

Advertisements
Track Severe Weather on mobile